sensor_id;sensor_type;location;lat;lon;timestamp;P1;durP1;ratioP1;P2;durP2;ratioP2
8219;SDS011;4151;51.110;7.020;2023-05-20T00:01:58;4.55;;;2.10;;
8219;SDS011;4151;51.110;7.020;2023-05-20T00:04:24;7.43;;;3.33;;
8219;SDS011;4151;51.110;7.020;2023-05-20T00:06:49;12.83;;;2.33;;
8219;SDS011;4151;51.110;7.020;2023-05-20T00:09:15;7.13;;;1.63;;
8219;SDS011;4151;51.110;7.020;2023-05-20T00:11:44;6.90;;;1.80;;
8219;SDS011;4151;51.110;7.020;2023-05-20T00:14:10;8.13;;;2.43;;
8219;SDS011;4151;51.110;7.020;2023-05-20T00:16:36;1.73;;;1.63;;
8219;SDS011;4151;51.110;7.020;2023-05-20T00:19:01;4.57;;;1.87;;
8219;SDS011;4151;51.110;7.020;2023-05-20T00:21:27;3.93;;;2.10;;
8219;SDS011;4151;51.110;7.020;2023-05-20T00:23:53;2.67;;;1.60;;
8219;SDS011;4151;51.110;7.020;2023-05-20T00:26:20;3.10;;;1.70;;
8219;SDS011;4151;51.110;7.020;2023-05-20T00:28:46;2.77;;;1.83;;
8219;SDS011;4151;51.110;7.020;2023-05-20T00:31:12;6.17;;;2.20;;
8219;SDS011;4151;51.110;7.020;2023-05-20T00:33:37;4.40;;;2.07;;
8219;SDS011;4151;51.110;7.020;2023-05-20T00:36:03;9.10;;;2.00;;
8219;SDS011;4151;51.110;7.020;2023-05-20T00:38:29;4.70;;;1.83;;
8219;SDS011;4151;51.110;7.020;2023-05-20T00:40:54;4.87;;;3.13;;
8219;SDS011;4151;51.110;7.020;2023-05-20T00:43:20;3.90;;;1.97;;
8219;SDS011;4151;51.110;7.020;2023-05-20T00:45:46;2.47;;;2.00;;
8219;SDS011;4151;51.110;7.020;2023-05-20T00:48:12;3.30;;;1.60;;
8219;SDS011;4151;51.110;7.020;2023-05-20T00:50:38;3.93;;;1.87;;
8219;SDS011;4151;51.110;7.020;2023-05-20T00:53:04;3.97;;;1.70;;
8219;SDS011;4151;51.110;7.020;2023-05-20T00:55:31;2.40;;;1.70;;
8219;SDS011;4151;51.110;7.020;2023-05-20T00:57:56;3.60;;;1.87;;
8219;SDS011;4151;51.110;7.020;2023-05-20T01:00:22;2.70;;;1.67;;
8219;SDS011;4151;51.110;7.020;2023-05-20T01:02:48;4.20;;;1.87;;
8219;SDS011;4151;51.110;7.020;2023-05-20T01:05:13;4.83;;;2.57;;
8219;SDS011;4151;51.110;7.020;2023-05-20T01:07:39;2.03;;;1.67;;
8219;SDS011;4151;51.110;7.020;2023-05-20T01:10:05;4.33;;;1.90;;
8219;SDS011;4151;51.110;7.020;2023-05-20T01:12:36;4.40;;;2.17;;
8219;SDS011;4151;51.110;7.020;2023-05-20T01:15:11;4.17;;;2.33;;
8219;SDS011;4151;51.110;7.020;2023-05-20T01:17:41;2.60;;;2.40;;
8219;SDS011;4151;51.110;7.020;2023-05-20T01:20:10;3.10;;;1.57;;
8219;SDS011;4151;51.110;7.020;2023-05-20T01:22:38;3.30;;;1.73;;
8219;SDS011;4151;51.110;7.020;2023-05-20T01:25:19;2.50;;;1.50;;
8219;SDS011;4151;51.110;7.020;2023-05-20T01:27:46;2.60;;;1.93;;
8219;SDS011;4151;51.110;7.020;2023-05-20T01:30:13;3.60;;;1.90;;
8219;SDS011;4151;51.110;7.020;2023-05-20T01:32:49;4.27;;;2.20;;
8219;SDS011;4151;51.110;7.020;2023-05-20T01:35:19;9.30;;;1.90;;
8219;SDS011;4151;51.110;7.020;2023-05-20T01:37:46;5.83;;;2.00;;
8219;SDS011;4151;51.110;7.020;2023-05-20T01:40:13;4.77;;;1.60;;
8219;SDS011;4151;51.110;7.020;2023-05-20T01:42:40;2.73;;;1.97;;
8219;SDS011;4151;51.110;7.020;2023-05-20T01:45:07;7.53;;;2.40;;
8219;SDS011;4151;51.110;7.020;2023-05-20T01:47:33;2.50;;;1.73;;
8219;SDS011;4151;51.110;7.020;2023-05-20T01:49:59;3.70;;;1.80;;
8219;SDS011;4151;51.110;7.020;2023-05-20T01:52:24;5.13;;;1.60;;
8219;SDS011;4151;51.110;7.020;2023-05-20T01:54:50;11.90;;;2.30;;
8219;SDS011;4151;51.110;7.020;2023-05-20T01:57:17;7.63;;;2.00;;
8219;SDS011;4151;51.110;7.020;2023-05-20T01:59:46;3.17;;;2.00;;
8219;SDS011;4151;51.110;7.020;2023-05-20T02:02:12;3.00;;;1.90;;
8219;SDS011;4151;51.110;7.020;2023-05-20T02:04:38;4.30;;;2.53;;
8219;SDS011;4151;51.110;7.020;2023-05-20T02:07:06;4.60;;;2.00;;
8219;SDS011;4151;51.110;7.020;2023-05-20T02:09:31;2.70;;;1.90;;
8219;SDS011;4151;51.110;7.020;2023-05-20T02:11:57;3.00;;;1.83;;
8219;SDS011;4151;51.110;7.020;2023-05-20T02:14:22;10.03;;;2.13;;
8219;SDS011;4151;51.110;7.020;2023-05-20T02:16:48;2.80;;;2.10;;
8219;SDS011;4151;51.110;7.020;2023-05-20T02:19:13;5.93;;;1.93;;
8219;SDS011;4151;51.110;7.020;2023-05-20T02:21:43;4.40;;;2.10;;
8219;SDS011;4151;51.110;7.020;2023-05-20T02:24:11;4.27;;;2.43;;
8219;SDS011;4151;51.110;7.020;2023-05-20T02:26:36;4.50;;;1.90;;
8219;SDS011;4151;51.110;7.020;2023-05-20T02:29:02;2.60;;;1.90;;
8219;SDS011;4151;51.110;7.020;2023-05-20T02:31:28;7.20;;;2.50;;
8219;SDS011;4151;51.110;7.020;2023-05-20T02:33:53;3.27;;;2.00;;
8219;SDS011;4151;51.110;7.020;2023-05-20T02:36:19;6.33;;;2.13;;
8219;SDS011;4151;51.110;7.020;2023-05-20T02:38:45;4.10;;;2.03;;
8219;SDS011;4151;51.110;7.020;2023-05-20T02:41:10;2.97;;;2.03;;
8219;SDS011;4151;51.110;7.020;2023-05-20T02:43:36;2.87;;;1.93;;
8219;SDS011;4151;51.110;7.020;2023-05-20T02:46:02;4.20;;;2.40;;
8219;SDS011;4151;51.110;7.020;2023-05-20T02:48:27;3.43;;;2.03;;
8219;SDS011;4151;51.110;7.020;2023-05-20T02:50:53;4.60;;;2.10;;
8219;SDS011;4151;51.110;7.020;2023-05-20T02:53:18;3.83;;;2.47;;
8219;SDS011;4151;51.110;7.020;2023-05-20T02:55:45;11.37;;;2.80;;
8219;SDS011;4151;51.110;7.020;2023-05-20T02:58:13;4.03;;;2.40;;
8219;SDS011;4151;51.110;7.020;2023-05-20T03:00:39;4.60;;;2.70;;
8219;SDS011;4151;51.110;7.020;2023-05-20T03:03:08;7.93;;;3.20;;
8219;SDS011;4151;51.110;7.020;2023-05-20T03:05:34;2.00;;;1.90;;
8219;SDS011;4151;51.110;7.020;2023-05-20T03:08:06;3.73;;;1.90;;
8219;SDS011;4151;51.110;7.020;2023-05-20T03:10:34;4.83;;;2.67;;
8219;SDS011;4151;51.110;7.020;2023-05-20T03:13:00;5.80;;;2.43;;
8219;SDS011;4151;51.110;7.020;2023-05-20T03:15:26;3.10;;;2.23;;
8219;SDS011;4151;51.110;7.020;2023-05-20T03:17:51;2.87;;;2.20;;
8219;SDS011;4151;51.110;7.020;2023-05-20T03:20:18;5.67;;;2.37;;
8219;SDS011;4151;51.110;7.020;2023-05-20T03:22:44;13.00;;;2.40;;
8219;SDS011;4151;51.110;7.020;2023-05-20T03:25:10;4.20;;;2.60;;
8219;SDS011;4151;51.110;7.020;2023-05-20T03:27:35;8.93;;;2.73;;
8219;SDS011;4151;51.110;7.020;2023-05-20T03:30:02;7.60;;;2.67;;
8219;SDS011;4151;51.110;7.020;2023-05-20T03:32:29;2.97;;;2.27;;
8219;SDS011;4151;51.110;7.020;2023-05-20T03:34:54;13.73;;;7.03;;
8219;SDS011;4151;51.110;7.020;2023-05-20T03:37:22;10.37;;;4.90;;
8219;SDS011;4151;51.110;7.020;2023-05-20T03:39:47;2.73;;;2.40;;
8219;SDS011;4151;51.110;7.020;2023-05-20T03:42:13;18.83;;;8.33;;
8219;SDS011;4151;51.110;7.020;2023-05-20T03:44:38;10.17;;;5.33;;
8219;SDS011;4151;51.110;7.020;2023-05-20T03:47:04;4.17;;;2.33;;
8219;SDS011;4151;51.110;7.020;2023-05-20T03:49:30;2.67;;;2.37;;
8219;SDS011;4151;51.110;7.020;2023-05-20T03:51:55;6.80;;;2.60;;
8219;SDS011;4151;51.110;7.020;2023-05-20T03:54:21;4.47;;;2.50;;
8219;SDS011;4151;51.110;7.020;2023-05-20T03:56:46;3.70;;;2.20;;
8219;SDS011;4151;51.110;7.020;2023-05-20T03:59:13;4.03;;;2.40;;
8219;SDS011;4151;51.110;7.020;2023-05-20T04:01:38;6.97;;;2.77;;
8219;SDS011;4151;51.110;7.020;2023-05-20T04:04:04;5.20;;;2.70;;
8219;SDS011;4151;51.110;7.020;2023-05-20T04:06:30;4.33;;;2.47;;
8219;SDS011;4151;51.110;7.020;2023-05-20T04:08:56;2.63;;;2.30;;
8219;SDS011;4151;51.110;7.020;2023-05-20T04:11:22;3.30;;;2.70;;
8219;SDS011;4151;51.110;7.020;2023-05-20T04:13:48;3.57;;;2.70;;
8219;SDS011;4151;51.110;7.020;2023-05-20T04:16:13;3.73;;;2.40;;
8219;SDS011;4151;51.110;7.020;2023-05-20T04:18:39;4.03;;;2.47;;
8219;SDS011;4151;51.110;7.020;2023-05-20T04:21:05;5.47;;;2.80;;
8219;SDS011;4151;51.110;7.020;2023-05-20T04:23:32;6.83;;;2.60;;
8219;SDS011;4151;51.110;7.020;2023-05-20T04:32:27;6.13;;;3.00;;
8219;SDS011;4151;51.110;7.020;2023-05-20T04:34:54;5.27;;;2.83;;
8219;SDS011;4151;51.110;7.020;2023-05-20T04:37:20;2.90;;;2.00;;
8219;SDS011;4151;51.110;7.020;2023-05-20T04:39:46;6.27;;;2.47;;
8219;SDS011;4151;51.110;7.020;2023-05-20T04:42:14;5.07;;;3.20;;
8219;SDS011;4151;51.110;7.020;2023-05-20T04:44:42;9.30;;;2.60;;
8219;SDS011;4151;51.110;7.020;2023-05-20T04:47:10;8.23;;;2.87;;
8219;SDS011;4151;51.110;7.020;2023-05-20T04:49:36;4.50;;;2.97;;
8219;SDS011;4151;51.110;7.020;2023-05-20T04:52:02;3.13;;;2.53;;
8219;SDS011;4151;51.110;7.020;2023-05-20T04:54:29;5.00;;;2.87;;
8219;SDS011;4151;51.110;7.020;2023-05-20T04:56:56;7.03;;;2.90;;
8219;SDS011;4151;51.110;7.020;2023-05-20T04:59:22;16.83;;;3.00;;
8219;SDS011;4151;51.110;7.020;2023-05-20T05:01:48;4.67;;;2.60;;
8219;SDS011;4151;51.110;7.020;2023-05-20T05:04:13;5.37;;;3.17;;
8219;SDS011;4151;51.110;7.020;2023-05-20T05:06:39;3.63;;;2.50;;
8219;SDS011;4151;51.110;7.020;2023-05-20T05:09:05;4.80;;;2.40;;
8219;SDS011;4151;51.110;7.020;2023-05-20T05:11:31;5.17;;;2.30;;
8219;SDS011;4151;51.110;7.020;2023-05-20T05:13:57;5.37;;;3.00;;
8219;SDS011;4151;51.110;7.020;2023-05-20T05:16:23;5.77;;;2.50;;
8219;SDS011;4151;51.110;7.020;2023-05-20T05:18:48;6.07;;;2.60;;
8219;SDS011;4151;51.110;7.020;2023-05-20T05:21:14;7.10;;;3.23;;
8219;SDS011;4151;51.110;7.020;2023-05-20T05:23:39;4.40;;;2.93;;
8219;SDS011;4151;51.110;7.020;2023-05-20T05:26:06;7.93;;;2.80;;
8219;SDS011;4151;51.110;7.020;2023-05-20T05:28:32;5.03;;;2.40;;
8219;SDS011;4151;51.110;7.020;2023-05-20T05:30:57;4.97;;;2.37;;
8219;SDS011;4151;51.110;7.020;2023-05-20T05:33:23;6.03;;;2.77;;
8219;SDS011;4151;51.110;7.020;2023-05-20T05:35:48;7.10;;;3.00;;
8219;SDS011;4151;51.110;7.020;2023-05-20T05:38:14;4.30;;;2.30;;
8219;SDS011;4151;51.110;7.020;2023-05-20T05:40:41;4.00;;;2.70;;
8219;SDS011;4151;51.110;7.020;2023-05-20T05:43:06;4.80;;;2.90;;
8219;SDS011;4151;51.110;7.020;2023-05-20T05:45:32;4.67;;;2.60;;
8219;SDS011;4151;51.110;7.020;2023-05-20T05:47:58;5.17;;;2.30;;
8219;SDS011;4151;51.110;7.020;2023-05-20T05:50:23;6.40;;;2.57;;
8219;SDS011;4151;51.110;7.020;2023-05-20T05:52:49;3.93;;;2.90;;
8219;SDS011;4151;51.110;7.020;2023-05-20T05:55:15;4.43;;;2.50;;
8219;SDS011;4151;51.110;7.020;2023-05-20T05:57:42;6.80;;;2.60;;
8219;SDS011;4151;51.110;7.020;2023-05-20T06:00:07;2.43;;;2.23;;
8219;SDS011;4151;51.110;7.020;2023-05-20T06:02:34;5.93;;;2.90;;
8219;SDS011;4151;51.110;7.020;2023-05-20T06:05:03;5.70;;;3.10;;
8219;SDS011;4151;51.110;7.020;2023-05-20T06:07:29;11.30;;;2.97;;
8219;SDS011;4151;51.110;7.020;2023-05-20T06:09:54;5.50;;;3.03;;
8219;SDS011;4151;51.110;7.020;2023-05-20T06:12:20;4.20;;;3.17;;
8219;SDS011;4151;51.110;7.020;2023-05-20T06:14:46;4.70;;;2.60;;
8219;SDS011;4151;51.110;7.020;2023-05-20T06:17:12;5.30;;;2.77;;
8219;SDS011;4151;51.110;7.020;2023-05-20T06:19:37;6.77;;;2.87;;
8219;SDS011;4151;51.110;7.020;2023-05-20T06:22:03;6.03;;;2.90;;
8219;SDS011;4151;51.110;7.020;2023-05-20T06:24:28;7.37;;;3.03;;
8219;SDS011;4151;51.110;7.020;2023-05-20T06:26:54;6.03;;;3.37;;
8219;SDS011;4151;51.110;7.020;2023-05-20T06:29:20;6.20;;;2.77;;
8219;SDS011;4151;51.110;7.020;2023-05-20T06:31:46;10.97;;;3.10;;
8219;SDS011;4151;51.110;7.020;2023-05-20T06:34:11;8.13;;;2.90;;
8219;SDS011;4151;51.110;7.020;2023-05-20T06:36:37;6.40;;;3.77;;
8219;SDS011;4151;51.110;7.020;2023-05-20T06:39:02;4.50;;;2.87;;
8219;SDS011;4151;51.110;7.020;2023-05-20T06:41:30;7.23;;;2.70;;
8219;SDS011;4151;51.110;7.020;2023-05-20T06:43:55;6.20;;;2.90;;
8219;SDS011;4151;51.110;7.020;2023-05-20T06:46:21;5.50;;;2.80;;
8219;SDS011;4151;51.110;7.020;2023-05-20T06:48:47;8.13;;;3.47;;
8219;SDS011;4151;51.110;7.020;2023-05-20T06:51:12;3.90;;;2.87;;
8219;SDS011;4151;51.110;7.020;2023-05-20T06:53:38;8.33;;;2.90;;
8219;SDS011;4151;51.110;7.020;2023-05-20T06:56:03;6.07;;;2.63;;
8219;SDS011;4151;51.110;7.020;2023-05-20T06:58:29;3.20;;;2.30;;
8219;SDS011;4151;51.110;7.020;2023-05-20T07:00:55;7.47;;;3.77;;
8219;SDS011;4151;51.110;7.020;2023-05-20T07:03:21;8.23;;;3.17;;
8219;SDS011;4151;51.110;7.020;2023-05-20T07:05:47;4.70;;;2.90;;
8219;SDS011;4151;51.110;7.020;2023-05-20T07:08:14;12.60;;;3.40;;
8219;SDS011;4151;51.110;7.020;2023-05-20T07:10:39;4.90;;;3.10;;
8219;SDS011;4151;51.110;7.020;2023-05-20T07:13:05;5.33;;;3.53;;
8219;SDS011;4151;51.110;7.020;2023-05-20T07:15:30;5.23;;;3.07;;
8219;SDS011;4151;51.110;7.020;2023-05-20T07:17:56;6.40;;;3.30;;
8219;SDS011;4151;51.110;7.020;2023-05-20T07:20:22;5.97;;;2.90;;
8219;SDS011;4151;51.110;7.020;2023-05-20T07:22:47;4.53;;;2.60;;
8219;SDS011;4151;51.110;7.020;2023-05-20T07:25:14;5.93;;;3.17;;
8219;SDS011;4151;51.110;7.020;2023-05-20T07:27:40;3.67;;;2.50;;
8219;SDS011;4151;51.110;7.020;2023-05-20T07:30:06;3.70;;;2.93;;
8219;SDS011;4151;51.110;7.020;2023-05-20T07:32:32;5.40;;;3.40;;
8219;SDS011;4151;51.110;7.020;2023-05-20T07:34:58;9.50;;;3.20;;
8219;SDS011;4151;51.110;7.020;2023-05-20T07:37:23;6.43;;;3.20;;
8219;SDS011;4151;51.110;7.020;2023-05-20T07:39:49;4.63;;;3.60;;
8219;SDS011;4151;51.110;7.020;2023-05-20T07:42:15;30.53;;;2.90;;
8219;SDS011;4151;51.110;7.020;2023-05-20T07:44:40;7.00;;;3.47;;
8219;SDS011;4151;51.110;7.020;2023-05-20T07:47:06;9.30;;;3.33;;
8219;SDS011;4151;51.110;7.020;2023-05-20T07:49:31;8.40;;;4.17;;
8219;SDS011;4151;51.110;7.020;2023-05-20T07:51:57;6.17;;;3.07;;
8219;SDS011;4151;51.110;7.020;2023-05-20T07:54:23;6.47;;;3.30;;
8219;SDS011;4151;51.110;7.020;2023-05-20T07:56:48;4.60;;;2.87;;
8219;SDS011;4151;51.110;7.020;2023-05-20T07:59:14;6.23;;;3.13;;
8219;SDS011;4151;51.110;7.020;2023-05-20T08:01:40;5.40;;;3.77;;
8219;SDS011;4151;51.110;7.020;2023-05-20T08:04:07;7.40;;;3.50;;
8219;SDS011;4151;51.110;7.020;2023-05-20T08:06:32;3.37;;;2.83;;
8219;SDS011;4151;51.110;7.020;2023-05-20T08:08:59;6.87;;;3.00;;
8219;SDS011;4151;51.110;7.020;2023-05-20T08:11:25;5.97;;;3.33;;
8219;SDS011;4151;51.110;7.020;2023-05-20T08:13:51;6.90;;;3.57;;
8219;SDS011;4151;51.110;7.020;2023-05-20T08:16:16;6.60;;;3.10;;
8219;SDS011;4151;51.110;7.020;2023-05-20T08:18:42;4.73;;;3.07;;
8219;SDS011;4151;51.110;7.020;2023-05-20T08:21:07;5.57;;;3.20;;
8219;SDS011;4151;51.110;7.020;2023-05-20T08:23:33;3.57;;;2.70;;
8219;SDS011;4151;51.110;7.020;2023-05-20T08:26:00;5.57;;;3.30;;
8219;SDS011;4151;51.110;7.020;2023-05-20T08:28:29;5.00;;;3.10;;
8219;SDS011;4151;51.110;7.020;2023-05-20T08:30:55;5.30;;;3.23;;
8219;SDS011;4151;51.110;7.020;2023-05-20T08:33:22;5.97;;;3.40;;
8219;SDS011;4151;51.110;7.020;2023-05-20T08:35:48;6.10;;;3.17;;
8219;SDS011;4151;51.110;7.020;2023-05-20T08:38:13;9.83;;;3.13;;
8219;SDS011;4151;51.110;7.020;2023-05-20T08:40:39;5.70;;;2.90;;
8219;SDS011;4151;51.110;7.020;2023-05-20T08:43:05;11.93;;;3.10;;
8219;SDS011;4151;51.110;7.020;2023-05-20T08:45:31;7.90;;;3.43;;
8219;SDS011;4151;51.110;7.020;2023-05-20T08:47:58;5.20;;;3.40;;
8219;SDS011;4151;51.110;7.020;2023-05-20T08:50:25;10.57;;;3.30;;
8219;SDS011;4151;51.110;7.020;2023-05-20T08:52:50;4.80;;;3.13;;
8219;SDS011;4151;51.110;7.020;2023-05-20T08:55:18;4.40;;;3.40;;
8219;SDS011;4151;51.110;7.020;2023-05-20T08:57:53;4.30;;;3.00;;
8219;SDS011;4151;51.110;7.020;2023-05-20T09:00:20;6.17;;;3.80;;
8219;SDS011;4151;51.110;7.020;2023-05-20T09:02:51;4.50;;;3.33;;
8219;SDS011;4151;51.110;7.020;2023-05-20T09:05:17;5.30;;;3.60;;
8219;SDS011;4151;51.110;7.020;2023-05-20T09:07:43;6.13;;;3.47;;
8219;SDS011;4151;51.110;7.020;2023-05-20T09:10:09;5.77;;;3.70;;
8219;SDS011;4151;51.110;7.020;2023-05-20T09:12:35;5.47;;;3.10;;
8219;SDS011;4151;51.110;7.020;2023-05-20T09:15:02;6.03;;;3.60;;
8219;SDS011;4151;51.110;7.020;2023-05-20T09:17:27;3.70;;;3.03;;
8219;SDS011;4151;51.110;7.020;2023-05-20T09:19:53;7.60;;;3.90;;
8219;SDS011;4151;51.110;7.020;2023-05-20T09:22:22;5.30;;;3.20;;
8219;SDS011;4151;51.110;7.020;2023-05-20T09:24:49;6.77;;;3.50;;
8219;SDS011;4151;51.110;7.020;2023-05-20T09:27:15;7.10;;;3.73;;
8219;SDS011;4151;51.110;7.020;2023-05-20T09:29:41;7.73;;;3.13;;
8219;SDS011;4151;51.110;7.020;2023-05-20T09:32:07;6.50;;;3.70;;
8219;SDS011;4151;51.110;7.020;2023-05-20T09:34:37;4.60;;;3.03;;
8219;SDS011;4151;51.110;7.020;2023-05-20T09:37:04;5.00;;;3.00;;
8219;SDS011;4151;51.110;7.020;2023-05-20T09:39:33;6.40;;;4.07;;
8219;SDS011;4151;51.110;7.020;2023-05-20T09:42:14;8.90;;;3.30;;
8219;SDS011;4151;51.110;7.020;2023-05-20T09:44:45;6.90;;;3.50;;
8219;SDS011;4151;51.110;7.020;2023-05-20T09:47:14;5.00;;;3.30;;
8219;SDS011;4151;51.110;7.020;2023-05-20T09:49:41;6.00;;;3.77;;
8219;SDS011;4151;51.110;7.020;2023-05-20T09:52:09;4.87;;;3.30;;
8219;SDS011;4151;51.110;7.020;2023-05-20T09:54:36;7.90;;;3.20;;
8219;SDS011;4151;51.110;7.020;2023-05-20T09:57:01;7.37;;;3.73;;
8219;SDS011;4151;51.110;7.020;2023-05-20T09:59:28;6.60;;;4.33;;
8219;SDS011;4151;51.110;7.020;2023-05-20T10:01:55;4.20;;;3.33;;
8219;SDS011;4151;51.110;7.020;2023-05-20T10:04:21;6.63;;;4.00;;
8219;SDS011;4151;51.110;7.020;2023-05-20T10:07:14;9.40;;;4.07;;
8219;SDS011;4151;51.110;7.020;2023-05-20T10:15:09;5.80;;;3.60;;
8219;SDS011;4151;51.110;7.020;2023-05-20T10:17:53;7.10;;;3.90;;
8219;SDS011;4151;51.110;7.020;2023-05-20T10:20:25;5.47;;;3.40;;
8219;SDS011;4151;51.110;7.020;2023-05-20T10:22:55;5.00;;;3.93;;
8219;SDS011;4151;51.110;7.020;2023-05-20T10:25:27;5.07;;;4.00;;
8219;SDS011;4151;51.110;7.020;2023-05-20T10:28:03;5.90;;;4.20;;
8219;SDS011;4151;51.110;7.020;2023-05-20T10:30:32;5.57;;;4.20;;
8219;SDS011;4151;51.110;7.020;2023-05-20T10:33:01;5.60;;;4.07;;
8219;SDS011;4151;51.110;7.020;2023-05-20T10:35:29;7.57;;;4.73;;
8219;SDS011;4151;51.110;7.020;2023-05-20T10:38:09;7.20;;;4.00;;
8219;SDS011;4151;51.110;7.020;2023-05-20T10:40:35;9.30;;;4.20;;
8219;SDS011;4151;51.110;7.020;2023-05-20T10:43:08;8.83;;;4.40;;
8219;SDS011;4151;51.110;7.020;2023-05-20T10:45:56;6.40;;;4.13;;
8219;SDS011;4151;51.110;7.020;2023-05-20T10:48:23;8.37;;;5.53;;
8219;SDS011;4151;51.110;7.020;2023-05-20T10:50:49;5.27;;;3.90;;
8219;SDS011;4151;51.110;7.020;2023-05-20T10:53:20;7.83;;;5.03;;
8219;SDS011;4151;51.110;7.020;2023-05-20T10:55:47;8.40;;;4.20;;
8219;SDS011;4151;51.110;7.020;2023-05-20T10:58:18;5.90;;;4.50;;
8219;SDS011;4151;51.110;7.020;2023-05-20T11:00:48;10.30;;;4.80;;
8219;SDS011;4151;51.110;7.020;2023-05-20T11:03:17;9.50;;;4.50;;
8219;SDS011;4151;51.110;7.020;2023-05-20T11:05:45;7.50;;;4.50;;
8219;SDS011;4151;51.110;7.020;2023-05-20T11:08:12;5.83;;;4.20;;
8219;SDS011;4151;51.110;7.020;2023-05-20T11:10:38;8.13;;;4.87;;
8219;SDS011;4151;51.110;7.020;2023-05-20T11:13:03;7.73;;;5.10;;
8219;SDS011;4151;51.110;7.020;2023-05-20T11:15:30;7.17;;;4.90;;
8219;SDS011;4151;51.110;7.020;2023-05-20T11:17:59;8.00;;;4.93;;
8219;SDS011;4151;51.110;7.020;2023-05-20T11:20:26;6.30;;;4.87;;
8219;SDS011;4151;51.110;7.020;2023-05-20T11:22:52;7.23;;;4.90;;
8219;SDS011;4151;51.110;7.020;2023-05-20T11:25:19;8.50;;;5.27;;
8219;SDS011;4151;51.110;7.020;2023-05-20T11:27:45;8.43;;;5.60;;
8219;SDS011;4151;51.110;7.020;2023-05-20T11:30:12;8.13;;;5.60;;
8219;SDS011;4151;51.110;7.020;2023-05-20T11:32:43;7.40;;;5.10;;
8219;SDS011;4151;51.110;7.020;2023-05-20T11:35:23;8.00;;;4.93;;
8219;SDS011;4151;51.110;7.020;2023-05-20T11:38:00;7.57;;;5.03;;
8219;SDS011;4151;51.110;7.020;2023-05-20T11:40:33;8.20;;;5.53;;
8219;SDS011;4151;51.110;7.020;2023-05-20T11:43:00;8.60;;;5.40;;
8219;SDS011;4151;51.110;7.020;2023-05-20T11:45:37;10.40;;;5.27;;
8219;SDS011;4151;51.110;7.020;2023-05-20T11:48:07;12.20;;;5.77;;
8219;SDS011;4151;51.110;7.020;2023-05-20T11:50:42;8.20;;;5.57;;
8219;SDS011;4151;51.110;7.020;2023-05-20T11:53:10;7.07;;;5.23;;
8219;SDS011;4151;51.110;7.020;2023-05-20T11:55:46;10.13;;;5.00;;
8219;SDS011;4151;51.110;7.020;2023-05-20T11:58:23;7.63;;;4.90;;
8219;SDS011;4151;51.110;7.020;2023-05-20T12:00:55;9.43;;;5.67;;
8219;SDS011;4151;51.110;7.020;2023-05-20T12:03:21;10.93;;;5.50;;
8219;SDS011;4151;51.110;7.020;2023-05-20T12:05:47;11.40;;;6.07;;
8219;SDS011;4151;51.110;7.020;2023-05-20T12:08:14;7.50;;;5.73;;
8219;SDS011;4151;51.110;7.020;2023-05-20T12:10:40;11.00;;;5.80;;
8219;SDS011;4151;51.110;7.020;2023-05-20T12:13:06;12.10;;;5.33;;
8219;SDS011;4151;51.110;7.020;2023-05-20T12:15:35;15.33;;;5.03;;
8219;SDS011;4151;51.110;7.020;2023-05-20T12:18:01;7.33;;;5.10;;
8219;SDS011;4151;51.110;7.020;2023-05-20T12:20:27;10.33;;;5.10;;
8219;SDS011;4151;51.110;7.020;2023-05-20T12:22:54;7.50;;;5.07;;
8219;SDS011;4151;51.110;7.020;2023-05-20T12:25:19;8.77;;;5.17;;
8219;SDS011;4151;51.110;7.020;2023-05-20T12:27:46;7.60;;;4.83;;
8219;SDS011;4151;51.110;7.020;2023-05-20T12:30:15;16.63;;;5.10;;
8219;SDS011;4151;51.110;7.020;2023-05-20T12:32:43;6.97;;;4.73;;
8219;SDS011;4151;51.110;7.020;2023-05-20T12:35:09;7.77;;;5.40;;
8219;SDS011;4151;51.110;7.020;2023-05-20T12:37:36;8.90;;;5.40;;
8219;SDS011;4151;51.110;7.020;2023-05-20T12:40:02;17.30;;;4.50;;
8219;SDS011;4151;51.110;7.020;2023-05-20T12:42:35;5.77;;;4.57;;
8219;SDS011;4151;51.110;7.020;2023-05-20T12:45:02;6.77;;;4.47;;
8219;SDS011;4151;51.110;7.020;2023-05-20T12:47:27;7.27;;;4.83;;
8219;SDS011;4151;51.110;7.020;2023-05-20T12:49:53;10.57;;;4.40;;
8219;SDS011;4151;51.110;7.020;2023-05-20T12:52:19;8.03;;;4.27;;
8219;SDS011;4151;51.110;7.020;2023-05-20T12:54:45;8.53;;;4.67;;
8219;SDS011;4151;51.110;7.020;2023-05-20T12:57:10;6.23;;;4.50;;
8219;SDS011;4151;51.110;7.020;2023-05-20T12:59:36;5.73;;;3.93;;
8219;SDS011;4151;51.110;7.020;2023-05-20T13:02:02;9.93;;;4.13;;
8219;SDS011;4151;51.110;7.020;2023-05-20T13:04:27;6.27;;;4.87;;
8219;SDS011;4151;51.110;7.020;2023-05-20T13:06:53;7.73;;;5.00;;
8219;SDS011;4151;51.110;7.020;2023-05-20T13:09:19;6.83;;;4.37;;
8219;SDS011;4151;51.110;7.020;2023-05-20T13:11:44;5.70;;;4.03;;
8219;SDS011;4151;51.110;7.020;2023-05-20T13:14:10;5.17;;;3.63;;
8219;SDS011;4151;51.110;7.020;2023-05-20T13:16:36;4.97;;;3.87;;
8219;SDS011;4151;51.110;7.020;2023-05-20T13:19:02;9.00;;;3.70;;
8219;SDS011;4151;51.110;7.020;2023-05-20T13:21:27;6.00;;;3.67;;
8219;SDS011;4151;51.110;7.020;2023-05-20T13:23:53;6.73;;;3.57;;
8219;SDS011;4151;51.110;7.020;2023-05-20T13:26:18;5.43;;;3.67;;
8219;SDS011;4151;51.110;7.020;2023-05-20T13:28:44;9.53;;;3.87;;
8219;SDS011;4151;51.110;7.020;2023-05-20T13:31:09;5.73;;;4.07;;
8219;SDS011;4151;51.110;7.020;2023-05-20T13:33:35;8.10;;;3.60;;
8219;SDS011;4151;51.110;7.020;2023-05-20T13:36:01;11.10;;;3.97;;
8219;SDS011;4151;51.110;7.020;2023-05-20T13:38:27;6.90;;;3.50;;
8219;SDS011;4151;51.110;7.020;2023-05-20T13:40:52;4.83;;;3.97;;
8219;SDS011;4151;51.110;7.020;2023-05-20T13:43:18;5.23;;;3.63;;
8219;SDS011;4151;51.110;7.020;2023-05-20T13:45:44;5.50;;;3.60;;
8219;SDS011;4151;51.110;7.020;2023-05-20T13:48:09;6.10;;;3.47;;
8219;SDS011;4151;51.110;7.020;2023-05-20T13:50:35;4.93;;;3.50;;
8219;SDS011;4151;51.110;7.020;2023-05-20T13:53:00;4.50;;;3.73;;
8219;SDS011;4151;51.110;7.020;2023-05-20T13:55:26;4.57;;;3.87;;
8219;SDS011;4151;51.110;7.020;2023-05-20T13:57:52;7.50;;;3.70;;
8219;SDS011;4151;51.110;7.020;2023-05-20T14:00:18;5.40;;;3.47;;
8219;SDS011;4151;51.110;7.020;2023-05-20T14:02:44;5.13;;;4.00;;
8219;SDS011;4151;51.110;7.020;2023-05-20T14:05:10;6.80;;;3.27;;
8219;SDS011;4151;51.110;7.020;2023-05-20T14:07:36;5.80;;;3.53;;
8219;SDS011;4151;51.110;7.020;2023-05-20T14:10:03;4.33;;;3.37;;
8219;SDS011;4151;51.110;7.020;2023-05-20T14:12:29;4.00;;;3.30;;
8219;SDS011;4151;51.110;7.020;2023-05-20T14:14:55;3.90;;;3.10;;
8219;SDS011;4151;51.110;7.020;2023-05-20T14:17:21;8.67;;;3.70;;
8219;SDS011;4151;51.110;7.020;2023-05-20T14:19:47;5.07;;;3.30;;
8219;SDS011;4151;51.110;7.020;2023-05-20T14:22:13;3.97;;;3.20;;
8219;SDS011;4151;51.110;7.020;2023-05-20T14:24:39;6.63;;;3.90;;
8219;SDS011;4151;51.110;7.020;2023-05-20T14:27:05;10.27;;;5.30;;
8219;SDS011;4151;51.110;7.020;2023-05-20T14:29:30;8.97;;;3.93;;
8219;SDS011;4151;51.110;7.020;2023-05-20T14:31:56;4.80;;;4.23;;
8219;SDS011;4151;51.110;7.020;2023-05-20T14:34:22;4.70;;;3.47;;
8219;SDS011;4151;51.110;7.020;2023-05-20T14:36:47;7.30;;;3.67;;
8219;SDS011;4151;51.110;7.020;2023-05-20T14:39:13;9.73;;;3.90;;
8219;SDS011;4151;51.110;7.020;2023-05-20T14:41:39;5.27;;;3.70;;
8219;SDS011;4151;51.110;7.020;2023-05-20T14:44:04;11.83;;;4.17;;
8219;SDS011;4151;51.110;7.020;2023-05-20T14:46:30;4.10;;;3.33;;
8219;SDS011;4151;51.110;7.020;2023-05-20T14:48:56;5.03;;;3.33;;
8219;SDS011;4151;51.110;7.020;2023-05-20T14:51:21;6.03;;;3.80;;
8219;SDS011;4151;51.110;7.020;2023-05-20T14:53:47;3.83;;;3.13;;
8219;SDS011;4151;51.110;7.020;2023-05-20T14:56:13;4.10;;;3.23;;
8219;SDS011;4151;51.110;7.020;2023-05-20T14:58:38;6.00;;;5.00;;
8219;SDS011;4151;51.110;7.020;2023-05-20T15:01:04;11.73;;;4.57;;
8219;SDS011;4151;51.110;7.020;2023-05-20T15:03:30;6.07;;;3.90;;
8219;SDS011;4151;51.110;7.020;2023-05-20T15:05:55;6.07;;;3.90;;
8219;SDS011;4151;51.110;7.020;2023-05-20T15:08:21;6.00;;;4.33;;
8219;SDS011;4151;51.110;7.020;2023-05-20T15:10:47;10.73;;;4.00;;
8219;SDS011;4151;51.110;7.020;2023-05-20T15:13:12;8.17;;;3.87;;
8219;SDS011;4151;51.110;7.020;2023-05-20T15:15:38;6.77;;;3.83;;
8219;SDS011;4151;51.110;7.020;2023-05-20T15:18:03;7.47;;;4.50;;
8219;SDS011;4151;51.110;7.020;2023-05-20T15:20:29;6.67;;;4.03;;
8219;SDS011;4151;51.110;7.020;2023-05-20T15:22:55;5.73;;;4.10;;
8219;SDS011;4151;51.110;7.020;2023-05-20T15:25:20;5.83;;;3.73;;